Flugplatz Straßham (UL)

Hier findest Du alle Informationen zum Flugplatz Straßham (UL).

Informationen für Piloten zum Flugplatz Straßham

Hier findest Du alle relevanten Informationen, die Du als Pilot benötigst, um Straßham anzufliegen.

Flugplatz: Straßham ICAO-Code: UL Flugplatz
Frequenz Turm: 123.425 Mhz GAFOR Gebiet: -
Frequenz Ground: 123.425 Mhz Mogas: nein
Platzrunde: W 2200 ft Landegebühr: -
Platzhöhe: Sunrise: 03:38 Uhr UTC
Pisten: 03/21 - 400 m x 30 m, GRAS Sunset: 18:59 Uhr UTC

Mitglieder, die in Straßham fliegen

Flugwetter am Flugplatz Straßham

Die METAR Information stammen aus EDDM (21.91 km entfernt).

METAR Code:
2024/07/22 12:20
EDDM 221220Z AUTO 30011KT 260V340 9999 SHRA SCT031 FEW///CB 22/18 Q1018 TEMPO NSW

Flugschulen am Flugplatz Straßham

Am Flugplatz Straßham gibt es leider keine Flugschule.

Benachbarte Flugplätze und Flugschulen

Es gibt 17 weitere Flugplätze in einem Umkreis von 50 km um den Flugplatz Straßham.

Jetzt anmelden

Passwort vergessen

Umfrage Archiv

Wie häufig haltet Ihr die Halbkreisflugregel ein?

Eher häufig!
36.6 %
Immer!
30.5 %
Hin und wieder!
16.8 %
Nie!
9.3 %
Eher selten!
6.8 %
Stimmen: 279 | Diskussion
Anzeige: Roland Aircraft
Statistik Alle Mitglieder

Aktuell sind 14 Besucher online.

Anzeige: EasyVFR